Time;durP1;ratioP1;P1;durP2;ratioP2;P2;SDS_P1;SDS_P2;PMS_P1;PMS_P2;Temp;Humidity;BMP_temperature;BMP_pressure;BME280_temperature;BME280_humidity;BME280_pressure;Samples;Min_cycle;Max_cycle;Signal;HPM_P1;HPM_P2
2020/12/14 00:02:20;;;;;;;9.98;3.92;;;;;;;6.28;71.65;100451.09;5050733;28;20056;-68
2020/12/14 00:04:46;;;;;;;9.52;3.90;;;;;;;6.24;71.95;100454.59;5058004;28;20059;-69
2020/12/14 00:07:12;;;;;;;16.20;3.83;;;;;;;6.32;71.25;100456.22;5055522;28;20049;-68
2020/12/14 00:09:38;;;;;;;9.45;4.20;;;;;;;6.23;71.52;100451.13;5044517;28;20056;-68
2020/12/14 00:12:04;;;;;;;9.40;3.42;;;;;;;6.31;71.10;100457.09;5052517;28;20049;-68
2020/12/14 00:14:31;;;;;;;9.48;3.63;;;;;;;6.25;71.33;100461.44;5032181;28;20072;-68
2020/12/14 00:16:57;;;;;;;9.10;3.50;;;;;;;6.22;71.03;100457.16;5045368;28;20048;-68
2020/12/14 00:19:23;;;;;;;11.93;3.28;;;;;;;6.19;71.63;100462.31;5051645;28;20055;-68
2020/12/14 00:21:51;;;;;;;11.07;3.50;;;;;;;6.30;70.80;100467.44;5047241;28;20471;-67
2020/12/14 00:24:17;;;;;;;17.48;4.00;;;;;;;6.21;71.31;100466.63;5039429;28;20052;-68
2020/12/14 00:26:43;;;;;;;9.38;3.70;;;;;;;6.30;71.05;100464.88;5057413;28;20109;-68
2020/12/14 00:29:09;;;;;;;12.57;4.00;;;;;;;6.24;71.50;100459.75;5034581;28;20115;-68
2020/12/14 00:31:36;;;;;;;10.93;3.22;;;;;;;6.16;71.28;100457.19;5032399;28;20062;-68
2020/12/14 00:34:02;;;;;;;9.25;3.50;;;;;;;6.25;71.53;100445.94;5032280;28;20046;-69
2020/12/14 00:36:28;;;;;;;10.70;3.30;;;;;;;6.24;71.34;100444.25;5031951;28;20514;-67
2020/12/14 00:38:54;;;;;;;10.02;3.97;;;;;;;6.27;70.38;100437.34;5043382;28;20045;-67
2020/12/14 00:41:21;;;;;;;7.47;3.40;;;;;;;6.26;70.86;100430.44;5047465;28;20056;-68
2020/12/14 00:43:48;;;;;;;11.63;3.63;;;;;;;6.32;70.91;100432.13;5033982;28;20442;-69
2020/12/14 00:46:15;;;;;;;10.10;3.65;;;;;;;6.36;70.73;100428.66;5051813;28;20102;-68
2020/12/14 00:48:43;;;;;;;7.68;2.63;;;;;;;6.32;70.62;100425.22;5051120;28;20055;-68
2020/12/14 00:51:09;;;;;;;10.15;3.22;;;;;;;6.29;70.79;100419.22;5050304;28;20045;-69
2020/12/14 00:53:35;;;;;;;8.90;2.95;;;;;;;6.35;70.48;100421.75;5031714;28;20045;-68
2020/12/14 00:56:02;;;;;;;11.35;3.38;;;;;;;6.31;70.91;100399.44;5040435;28;20053;-68
2020/12/14 00:58:28;;;;;;;10.15;2.80;;;;;;;6.26;70.74;100411.50;5079830;22;20075;-74
2020/12/14 01:00:54;;;;;;;12.27;3.75;;;;;;;6.30;70.23;100413.19;5063482;28;20159;-75
2020/12/14 01:03:20;;;;;;;11.13;2.67;;;;;;;6.24;70.94;100418.44;5050950;28;20053;-76
2020/12/14 01:05:47;;;;;;;8.70;2.80;;;;;;;6.29;70.86;100411.50;5065535;28;20549;-74
2020/12/14 01:08:13;;;;;;;6.82;2.17;;;;;;;6.34;69.99;100408.00;5057466;28;20052;-74
2020/12/14 01:10:39;;;;;;;7.00;2.33;;;;;;;6.32;70.28;100401.13;5045078;28;20060;-74
2020/12/14 01:13:05;;;;;;;9.20;2.83;;;;;;;6.19;71.25;100410.66;5028968;28;20400;-75
2020/12/14 01:15:31;;;;;;;8.23;3.60;;;;;;;6.16;71.28;100415.88;5036570;28;20471;-75
2020/12/14 01:17:56;;;;;;;7.05;2.40;;;;;;;6.26;71.33;100412.38;5046689;28;20534;-74
2020/12/14 01:20:22;;;;;;;12.18;3.05;;;;;;;6.28;70.90;100405.47;5045731;28;20099;-74
2020/12/14 01:22:49;;;;;;;9.85;2.33;;;;;;;6.32;70.95;100403.72;5028150;28;20116;-74
2020/12/14 01:25:15;;;;;;;10.35;3.22;;;;;;;6.29;71.22;100406.31;5028661;28;20060;-75
2020/12/14 01:27:41;;;;;;;8.68;3.83;;;;;;;6.36;70.44;100407.97;5028606;28;20053;-70
2020/12/14 01:30:07;;;;;;;9.85;2.40;;;;;;;6.47;70.36;100397.59;5035386;28;20469;-74
2020/12/14 01:32:33;;;;;;;10.05;3.05;;;;;;;6.28;70.32;100400.31;5051417;28;20428;-74
2020/12/14 01:34:59;;;;;;;10.35;2.38;;;;;;;6.40;69.67;100409.69;5037158;28;20087;-74
2020/12/14 01:37:25;;;;;;;6.20;2.33;;;;;;;6.37;70.94;100405.41;5051937;28;20513;-74
2020/12/14 01:39:51;;;;;;;7.63;2.58;;;;;;;6.38;70.38;100404.53;5051338;28;20136;-74
2020/12/14 01:42:22;;;;;;;9.10;2.20;;;;;;;6.40;70.71;100404.53;5037890;28;20072;-74
2020/12/14 01:44:48;;;;;;;9.95;2.60;;;;;;;6.49;70.42;100406.16;5042644;28;20143;-74
2020/12/14 01:47:17;;;;;;;5.60;2.20;;;;;;;6.46;70.38;100404.47;5051740;28;20063;-73
2020/12/14 01:49:43;;;;;;;8.43;2.50;;;;;;;6.57;69.99;100400.94;5051280;28;20103;-74
2020/12/14 01:52:09;;;;;;;6.75;2.20;;;;;;;6.49;70.20;100394.13;5047856;28;20049;-74
2020/12/14 01:54:36;;;;;;;7.03;2.40;;;;;;;6.54;70.29;100389.75;5051398;28;20053;-75
2020/12/14 01:57:03;;;;;;;7.63;2.20;;;;;;;6.46;69.95;100394.13;5051180;28;20049;-74
2020/12/14 01:59:29;;;;;;;12.30;4.00;;;;;;;6.47;69.89;100401.00;5031598;28;20057;-75
2020/12/14 02:01:55;;;;;;;8.43;2.42;;;;;;;6.43;70.26;100395.88;5048045;28;20137;-74
2020/12/14 02:04:21;;;;;;;9.32;2.67;;;;;;;6.41;70.42;100400.19;5051213;28;20091;-74
2020/12/14 02:06:46;;;;;;;10.32;2.70;;;;;;;6.47;70.29;100389.84;5047072;28;20144;-74
2020/12/14 02:09:12;;;;;;;6.03;2.03;;;;;;;6.43;70.29;100390.72;5058761;28;20055;-74
2020/12/14 02:11:39;;;;;;;7.80;2.10;;;;;;;6.44;70.10;100382.94;5051165;28;20083;-74
2020/12/14 02:14:06;;;;;;;8.73;2.42;;;;;;;6.39;70.30;100387.31;5048947;28;20095;-74
2020/12/14 02:16:32;;;;;;;10.25;2.50;;;;;;;6.44;70.41;100387.28;5051271;28;20053;-75
2020/12/14 02:18:58;;;;;;;9.93;2.92;;;;;;;6.45;70.17;100389.81;5051042;28;20517;-74
2020/12/14 02:21:24;;;;;;;8.95;1.95;;;;;;;6.48;70.11;100384.66;5051191;28;20054;-74
2020/12/14 02:23:50;;;;;;;7.93;2.30;;;;;;;6.40;70.63;100375.22;5046581;28;20049;-76
2020/12/14 02:26:16;;;;;;;5.15;1.70;;;;;;;6.32;70.39;100394.25;5049541;28;20057;-75
2020/12/14 02:28:42;;;;;;;8.05;1.92;;;;;;;6.36;70.58;100380.44;5037104;28;20045;-75
2020/12/14 02:31:08;;;;;;;10.20;2.38;;;;;;;6.36;71.26;100384.72;5040763;28;20060;-75
2020/12/14 02:33:34;;;;;;;7.30;2.22;;;;;;;6.35;71.08;100386.47;5052581;28;20045;-74
2020/12/14 02:36:00;;;;;;;8.13;2.58;;;;;;;6.44;70.41;100390.69;5055438;28;20099;-74
2020/12/14 02:38:26;;;;;;;14.90;3.25;;;;;;;6.46;70.10;100375.19;5051495;28;20440;-75
2020/12/14 02:40:52;;;;;;;7.53;2.03;;;;;;;6.36;71.07;100374.41;5054731;28;20079;-75
2020/12/14 02:43:18;;;;;;;10.38;2.45;;;;;;;6.45;70.62;100374.31;5051638;28;20041;-76
2020/12/14 02:45:45;;;;;;;5.82;2.13;;;;;;;6.40;70.85;100377.81;5054933;28;20055;-75
2020/12/14 02:48:11;;;;;;;8.05;1.77;;;;;;;6.45;69.93;100366.56;5054560;28;20053;-74
2020/12/14 02:50:38;;;;;;;7.28;2.25;;;;;;;6.40;70.52;100368.34;5051091;28;20426;-75
2020/12/14 02:53:04;;;;;;;7.38;2.05;;;;;;;6.36;71.01;100364.06;5053656;28;20506;-74
2020/12/14 02:55:31;;;;;;;11.68;2.30;;;;;;;6.35;70.54;100370.09;5064756;28;20052;-75
2020/12/14 02:57:57;;;;;;;7.80;1.90;;;;;;;6.48;70.46;100374.31;5046688;28;20124;-75
2020/12/14 03:00:24;;;;;;;8.07;2.10;;;;;;;6.42;70.78;100371.78;5054157;28;20119;-75
2020/12/14 03:02:49;;;;;;;7.80;2.65;;;;;;;6.48;70.60;100366.56;5054141;28;20053;-75
2020/12/14 03:05:15;;;;;;;9.05;2.45;;;;;;;6.45;70.80;100366.56;5050085;28;20045;-75
2020/12/14 03:07:41;;;;;;;6.63;1.75;;;;;;;6.53;70.66;100369.97;5059631;28;20045;-73
2020/12/14 03:10:07;;;;;;;9.38;2.75;;;;;;;6.45;70.74;100361.41;5056976;28;20049;-75
2020/12/14 03:12:33;;;;;;;7.93;2.10;;;;;;;6.36;71.09;100362.34;5050314;28;20147;-74
2020/12/14 03:15:00;;;;;;;7.05;1.98;;;;;;;6.47;71.41;100359.69;5046684;28;20102;-74
2020/12/14 03:17:27;;;;;;;6.55;1.80;;;;;;;6.48;71.06;100351.06;5054165;28;20561;-75
2020/12/14 03:19:53;;;;;;;6.70;2.03;;;;;;;6.51;71.16;100345.88;5054162;28;20124;-74
2020/12/14 03:22:19;;;;;;;6.22;2.13;;;;;;;6.51;71.19;100339.84;5047252;28;20430;-74
2020/12/14 03:24:45;;;;;;;5.25;1.85;;;;;;;6.50;70.69;100349.31;5055152;28;20044;-74
2020/12/14 03:27:11;;;;;;;5.88;1.90;;;;;;;6.48;70.58;100345.03;5064043;28;20383;-74
2020/12/14 03:29:37;;;;;;;5.90;2.00;;;;;;;6.45;70.77;100335.56;5038002;28;20052;-73
2020/12/14 03:32:03;;;;;;;7.55;1.88;;;;;;;6.46;71.13;100336.44;5054339;28;20057;-72
2020/12/14 03:34:30;;;;;;;8.70;1.58;;;;;;;6.53;71.43;100341.56;5053858;28;20461;-74
2020/12/14 03:36:57;;;;;;;6.25;1.67;;;;;;;6.51;71.33;100337.25;5049671;28;20455;-74
2020/12/14 03:39:22;;;;;;;4.60;1.83;;;;;;;6.54;71.52;100343.25;5035504;28;20050;-74
2020/12/14 03:41:50;;;;;;;6.70;1.92;;;;;;;6.54;71.02;100345.81;5054023;28;20056;-74
2020/12/14 03:44:15;;;;;;;7.85;2.65;;;;;;;6.58;70.88;100348.38;5049850;28;20041;-72
2020/12/14 03:46:41;;;;;;;5.07;1.85;;;;;;;6.54;71.99;100350.16;5053151;28;20049;-74
2020/12/14 03:49:09;;;;;;;7.20;2.05;;;;;;;6.64;72.40;100345.75;5053240;28;20049;-74
2020/12/14 03:51:36;;;;;;;10.65;2.65;;;;;;;6.75;71.34;100354.25;5046187;28;20063;-74
2020/12/14 03:54:02;;;;;;;8.07;2.38;;;;;;;6.86;71.55;100346.41;5059406;28;20051;-74
2020/12/14 03:56:28;;;;;;;7.63;1.80;;;;;;;6.92;70.76;100345.50;5059683;28;20498;-74
2020/12/14 03:58:55;;;;;;;8.48;2.17;;;;;;;7.03;70.41;100351.41;5037923;28;20060;-74
2020/12/14 04:01:22;;;;;;;8.00;1.77;;;;;;;6.93;70.53;100347.22;5036240;28;20518;-74
2020/12/14 04:03:48;;;;;;;8.05;2.20;;;;;;;6.99;70.60;100350.56;5053446;28;20056;-73
2020/12/14 04:06:18;;;;;;;6.93;2.08;;;;;;;7.04;70.58;100340.16;5041410;28;20427;-74
2020/12/14 04:08:45;;;;;;;8.63;2.10;;;;;;;7.04;70.86;100347.06;5043228;28;20057;-75
2020/12/14 04:11:11;;;;;;;6.82;3.03;;;;;;;7.16;70.07;100350.38;5053334;28;20056;-75
2020/12/14 04:13:37;;;;;;;13.30;2.10;;;;;;;7.12;70.03;100347.84;5043535;28;20464;-75
2020/12/14 04:16:03;;;;;;;8.05;1.90;;;;;;;6.99;71.23;100347.97;5053023;28;20132;-76
2020/12/14 04:18:29;;;;;;;7.82;2.63;;;;;;;6.84;71.06;100354.16;5052876;28;20134;-75
2020/12/14 04:20:55;;;;;;;9.93;2.97;;;;;;;6.85;71.78;100350.69;5048939;28;20045;-75
2020/12/14 04:23:22;;;;;;;10.13;2.00;;;;;;;6.90;71.90;100337.72;5048711;28;20045;-75
2020/12/14 04:25:49;;;;;;;8.30;1.83;;;;;;;6.77;72.05;100351.66;5053046;28;20049;-74
2020/12/14 04:28:14;;;;;;;7.57;2.22;;;;;;;6.92;71.94;100342.91;5045947;28;20053;-75
2020/12/14 04:30:40;;;;;;;9.38;2.30;;;;;;;7.01;72.11;100340.22;5060641;28;20103;-75
2020/12/14 04:33:07;;;;;;;10.13;2.20;;;;;;;7.01;71.53;100350.56;5052783;28;20053;-75
2020/12/14 04:35:33;;;;;;;8.40;2.30;;;;;;;7.19;71.05;100348.63;5051924;28;20090;-75
2020/12/14 04:37:59;;;;;;;8.82;2.20;;;;;;;7.09;71.37;100345.28;5048516;28;20078;-75
2020/12/14 04:40:27;;;;;;;5.68;2.00;;;;;;;7.12;71.25;100333.19;5052369;28;20212;-75
2020/12/14 04:42:57;;;;;;;5.35;1.88;;;;;;;7.03;71.26;100332.44;5046395;28;20044;-75
2020/12/14 04:45:24;;;;;;;6.97;2.20;;;;;;;7.03;71.26;100338.47;5052488;28;20052;-75
2020/12/14 04:47:53;;;;;;;6.63;1.98;;;;;;;7.01;71.62;100342.81;5049719;28;20103;-75
2020/12/14 04:50:22;;;;;;;6.47;2.28;;;;;;;6.99;71.27;100341.97;5048008;28;20041;-75
2020/12/14 04:52:48;;;;;;;6.40;1.80;;;;;;;6.97;72.20;100334.22;5051436;28;20371;-75
2020/12/14 04:55:19;;;;;;;7.88;1.80;;;;;;;7.06;71.31;100328.06;5049762;28;20056;-75
2020/12/14 04:57:45;;;;;;;9.20;2.08;;;;;;;6.96;71.65;100321.28;5043989;28;20057;-75
2020/12/14 05:00:12;;;;;;;4.43;1.67;;;;;;;7.11;71.23;100315.09;5046876;28;20053;-75
2020/12/14 05:02:38;;;;;;;6.80;1.80;;;;;;;7.00;71.77;100323.81;5043931;28;20095;-75
2020/12/14 05:05:04;;;;;;;8.80;3.33;;;;;;;7.17;71.07;100322.78;5057894;28;20746;-76
2020/12/14 05:07:41;;;;;;;6.18;1.83;;;;;;;6.99;71.14;100326.44;5046240;28;20136;-74
2020/12/14 05:10:07;;;;;;;9.77;1.85;;;;;;;7.02;71.32;100336.75;5053722;28;20052;-76
2020/12/14 05:12:39;;;;;;;5.22;1.63;;;;;;;7.00;71.46;100338.50;5046949;28;20049;-78
2020/12/14 05:15:16;;;;;;;6.97;1.50;;;;;;;7.12;71.68;100333.19;5031314;28;20091;-74
2020/12/14 05:17:42;;;;;;;9.25;1.83;;;;;;;7.24;71.41;100331.31;5042673;28;20049;-75
2020/12/14 05:20:13;;;;;;;7.88;1.92;;;;;;;7.25;70.55;100330.44;5049669;28;20045;-75
2020/12/14 05:22:39;;;;;;;9.35;2.38;;;;;;;7.19;71.25;100327.94;5034040;28;20041;-75
2020/12/14 05:25:05;;;;;;;8.90;2.00;;;;;;;7.31;70.81;100326.06;5031712;28;20053;-76
2020/12/14 05:27:33;;;;;;;8.43;2.00;;;;;;;7.27;70.65;100326.13;5039224;28;20156;-76
2020/12/14 05:29:59;;;;;;;6.93;1.75;;;;;;;7.16;71.49;100314.16;5050260;28;20053;-75
2020/12/14 05:32:26;;;;;;;9.80;1.60;;;;;;;7.14;71.58;100321.06;5050632;28;20053;-75
2020/12/14 05:34:52;;;;;;;5.63;2.40;;;;;;;7.09;71.24;100322.88;5051688;28;20083;-76
2020/12/14 05:37:18;;;;;;;5.03;1.77;;;;;;;6.92;72.01;100324.81;5048785;28;20422;-72
2020/12/14 05:39:45;;;;;;;9.05;1.70;;;;;;;6.98;72.65;100316.97;5034688;28;20403;-76
2020/12/14 05:42:14;;;;;;;6.53;1.98;;;;;;;7.04;71.87;100316.03;5043691;28;20049;-75
2020/12/14 05:44:41;;;;;;;6.22;1.88;;;;;;;6.97;71.89;100312.66;5046949;28;20044;-76
2020/12/14 05:47:29;;;;;;;5.85;1.70;;;;;;;6.95;72.19;100309.22;5049763;28;20049;-75
2020/12/14 05:49:57;;;;;;;7.53;2.08;;;;;;;6.94;72.26;100310.97;5050687;28;20060;-75
2020/12/14 05:52:30;;;;;;;8.57;2.80;;;;;;;6.95;72.46;100311.81;5045242;28;20103;-76
2020/12/14 05:54:57;;;;;;;4.35;1.48;;;;;;;6.93;72.73;100305.84;5059023;28;20072;-75
2020/12/14 05:57:31;;;;;;;5.93;1.42;;;;;;;6.87;72.94;100311.06;5047040;28;20492;-75
2020/12/14 05:59:59;;;;;;;5.30;1.80;;;;;;;6.74;73.58;100306.00;5040573;28;20054;-75
2020/12/14 06:02:25;;;;;;;7.45;2.08;;;;;;;6.68;73.57;100306.09;5039311;28;20602;-76
2020/12/14 06:04:55;;;;;;;5.80;1.60;;;;;;;6.72;74.02;100310.38;5043234;28;20128;-75
2020/12/14 06:07:25;;;;;;;10.18;2.00;;;;;;;6.85;73.99;100313.66;5046859;28;20072;-75
2020/12/14 06:10:01;;;;;;;6.47;2.00;;;;;;;6.91;73.62;100307.56;5043780;28;20479;-75
2020/12/14 06:12:29;;;;;;;6.88;1.90;;;;;;;7.05;73.30;100312.59;5049275;28;20052;-74
2020/12/14 06:14:59;;;;;;;7.15;2.10;;;;;;;7.07;72.91;100298.75;5043442;28;20069;-75
2020/12/14 06:17:27;;;;;;;5.38;1.67;;;;;;;7.03;73.14;100311.75;5030445;28;20068;-76
2020/12/14 06:20:04;;;;;;;7.10;1.42;;;;;;;7.13;72.85;100308.19;5029934;28;20509;-74
2020/12/14 06:22:32;;;;;;;7.20;2.13;;;;;;;7.00;73.55;100310.91;5034723;28;20059;-75
2020/12/14 06:25:00;;;;;;;7.18;1.73;;;;;;;7.12;73.17;100307.34;5046567;28;20449;-74
2020/12/14 06:27:27;;;;;;;8.65;2.10;;;;;;;7.05;73.82;100316.00;5049013;28;20059;-74
2020/12/14 06:29:53;;;;;;;5.28;1.48;;;;;;;7.08;74.28;100321.16;5049780;28;20048;-75
2020/12/14 06:32:35;;;;;;;7.35;1.52;;;;;;;7.09;73.76;100328.06;5050502;28;20049;-74
2020/12/14 06:35:02;;;;;;;5.82;1.95;;;;;;;7.17;73.31;100302.09;5048948;28;20103;-74
2020/12/14 06:37:47;;;;;;;5.57;2.17;;;;;;;7.16;73.88;100302.97;5043851;28;20050;-73
2020/12/14 06:40:13;;;;;;;3.95;1.88;;;;;;;7.26;73.68;100303.69;5030393;28;20053;-74
2020/12/14 06:42:39;;;;;;;6.38;2.10;;;;;;;7.21;73.65;100305.50;5034897;28;20418;-74
2020/12/14 06:45:07;;;;;;;7.95;1.80;;;;;;;7.27;73.32;100314.06;5050412;28;20139;-75
2020/12/14 06:47:52;;;;;;;7.28;1.85;;;;;;;7.17;74.06;100302.09;5047108;28;20111;-74
2020/12/14 06:50:40;;;;;;;7.70;1.83;;;;;;;7.14;73.92;100308.16;5047651;28;20053;-74
2020/12/14 06:53:41;;;;;;;6.47;2.28;;;;;;;7.28;73.61;100301.97;5036719;28;20049;-74
2020/12/14 06:56:08;;;;;;;10.18;2.90;;;;;;;7.20;73.83;100308.97;5046344;28;20053;-74
2020/12/14 06:58:36;;;;;;;5.47;1.70;;;;;;;7.35;73.62;100307.91;5058330;23;20051;-71
2020/12/14 07:01:03;;;;;;;5.05;1.63;;;;;;;7.30;74.02;100326.09;5055843;28;20052;-71
2020/12/14 07:03:37;;;;;;;5.57;1.75;;;;;;;7.41;74.05;100323.34;5066274;28;20052;-71
2020/12/14 07:06:04;;;;;;;7.80;1.63;;;;;;;7.32;74.73;100329.53;5066931;28;20044;-70
2020/12/14 07:08:37;;;;;;;7.30;2.05;;;;;;;7.29;75.43;100340.72;5056708;28;20413;-70
2020/12/14 07:11:11;;;;;;;4.65;1.80;;;;;;;7.39;74.86;100348.38;5061004;28;20068;-71
2020/12/14 07:13:37;;;;;;;6.25;2.30;;;;;;;7.30;76.24;100349.38;5046316;28;20041;-71
2020/12/14 07:16:07;;;;;;;10.40;1.98;;;;;;;7.41;76.96;100360.44;5061512;28;20049;-70
2020/12/14 07:18:34;;;;;;;10.90;2.33;;;;;;;7.34;78.18;100347.59;5060315;28;20058;-71
2020/12/14 07:21:07;;;;;;;6.53;2.33;;;;;;;7.12;79.72;100356.47;5061927;28;20095;-71
2020/12/14 07:23:34;;;;;;;6.18;2.53;;;;;;;6.99;80.27;100358.31;5053707;28;20075;-71
2020/12/14 07:26:01;;;;;;;6.15;2.08;;;;;;;6.94;80.89;100361.81;5053362;28;20080;-72
2020/12/14 07:28:35;;;;;;;9.07;2.78;;;;;;;6.91;81.53;100356.69;5047851;28;20072;-70
2020/12/14 07:31:07;;;;;;;6.88;2.08;;;;;;;6.83;81.75;100360.22;5033416;28;20041;-71
2020/12/14 07:33:33;;;;;;;10.15;3.53;;;;;;;6.88;82.29;100360.19;5036658;28;20041;-71
2020/12/14 07:36:08;;;;;;;8.27;2.60;;;;;;;6.77;82.57;100357.69;5052739;28;20048;-72
2020/12/14 07:38:43;;;;;;;;;;;;;;;6.71;83.36;100352.59;5050330;28;20053;-71
2020/12/14 07:41:09;;;;;;;9.60;1.95;;;;;;;6.69;83.37;100356.91;5051689;28;20015;-70
2020/12/14 07:43:43;;;;;;;6.80;2.40;;;;;;;6.57;83.93;100363.06;5042789;28;20097;-72
2020/12/14 07:46:21;;;;;;;8.70;2.75;;;;;;;6.55;84.26;100372.53;5038287;28;20045;-69
2020/12/14 07:49:01;;;;;;;9.13;2.70;;;;;;;6.64;84.06;100377.63;5051380;28;20072;-71
2020/12/14 07:51:28;;;;;;;5.63;2.20;;;;;;;6.59;83.93;100379.38;5044419;28;20060;-71
2020/12/14 07:54:04;;;;;;;8.77;2.38;;;;;;;6.55;84.85;100382.88;5036436;28;20041;-71
2020/12/14 07:56:30;;;;;;;13.50;2.80;;;;;;;6.52;84.79;100388.94;5048785;28;20052;-71
2020/12/14 07:58:56;;;;;;;7.63;2.30;;;;;;;6.65;84.11;100383.63;5042259;28;20522;-71
2020/12/14 08:01:22;;;;;;;9.45;2.40;;;;;;;6.54;84.89;100389.75;5042279;28;20045;-72
2020/12/14 08:03:49;;;;;;;7.97;2.38;;;;;;;6.52;84.51;100398.41;5047869;28;20046;-72
2020/12/14 08:06:16;;;;;;;10.80;2.90;;;;;;;6.56;84.73;100394.94;5052375;28;20056;-71
2020/12/14 08:08:47;;;;;;;9.98;2.70;;;;;;;6.56;84.81;100388.88;5039599;28;20049;-71
2020/12/14 08:11:15;;;;;;;8.43;2.72;;;;;;;6.56;85.32;100394.06;5052514;28;20496;-72
2020/12/14 08:13:43;;;;;;;8.65;3.00;;;;;;;6.49;85.54;100404.44;5044690;28;20064;-73
2020/12/14 08:16:16;;;;;;;7.22;2.80;;;;;;;6.50;86.06;100393.25;5048477;28;20473;-71
2020/12/14 08:18:44;;;;;;;6.38;3.00;;;;;;;6.61;86.05;100381.97;5050420;28;20060;-71
2020/12/14 08:21:20;;;;;;;9.40;3.38;;;;;;;6.59;85.85;100394.03;5059344;28;20044;-70
2020/12/14 08:23:46;;;;;;;8.73;3.30;;;;;;;6.52;86.46;100398.41;5054672;28;20059;-71
2020/12/14 08:26:13;;;;;;;7.65;2.35;;;;;;;6.57;86.46;100395.78;5062430;28;20464;-71
2020/12/14 08:28:42;;;;;;;9.88;3.63;;;;;;;6.56;86.88;100400.09;5052487;28;20140;-68
2020/12/14 08:31:09;;;;;;;7.28;3.03;;;;;;;6.59;86.45;100405.22;5071047;28;20052;-72
2020/12/14 08:33:49;;;;;;;9.48;2.80;;;;;;;6.66;86.43;100413.78;5065732;28;20041;-69
2020/12/14 08:36:15;;;;;;;5.38;2.15;;;;;;;6.65;86.29;100419.81;5049401;28;20053;-70
2020/12/14 08:38:41;;;;;;;5.63;2.50;;;;;;;6.63;86.70;100424.16;5051355;28;20060;-71
2020/12/14 08:41:07;;;;;;;8.25;2.75;;;;;;;6.63;86.89;100422.44;5051424;28;20095;-71
2020/12/14 08:43:35;;;;;;;11.90;3.03;;;;;;;6.66;86.72;100425.00;5044053;28;20090;-71
2020/12/14 08:46:04;;;;;;;6.75;2.35;;;;;;;6.73;86.40;100422.34;5051557;28;20410;-71
2020/12/14 08:48:40;;;;;;;8.00;2.97;;;;;;;6.66;86.80;100426.72;5055468;28;20418;-69
2020/12/14 08:51:07;;;;;;;10.18;3.83;;;;;;;6.70;86.42;100418.06;5071704;28;20105;-71
2020/12/14 08:53:34;;;;;;;5.53;2.53;;;;;;;6.68;86.50;100424.97;5041775;28;20044;-70
2020/12/14 08:56:06;;;;;;;7.72;2.60;;;;;;;6.73;86.45;100430.97;5046592;28;20527;-72
2020/12/14 08:58:32;;;;;;;6.53;2.65;;;;;;;6.70;86.00;100433.56;5058448;28;20052;-71
2020/12/14 09:01:09;;;;;;;7.82;2.42;;;;;;;6.68;86.01;100436.19;5051230;28;20136;-70
2020/12/14 09:03:46;;;;;;;8.90;3.13;;;;;;;6.71;86.78;100439.59;5050364;28;20052;-70
2020/12/14 09:06:23;;;;;;;9.57;2.65;;;;;;;6.77;86.50;100440.41;5040246;28;20060;-73
2020/12/14 09:09:06;;;;;;;9.07;2.92;;;;;;;6.73;86.42;100433.56;5050173;28;20068;-71
2020/12/14 09:11:34;;;;;;;9.73;2.95;;;;;;;6.74;86.47;100445.59;5050976;28;20056;-71
2020/12/14 09:14:01;;;;;;;7.47;2.53;;;;;;;6.80;85.88;100440.38;5040062;28;20087;-70
2020/12/14 09:16:28;;;;;;;9.98;3.03;;;;;;;6.65;86.69;100451.72;5049182;28;20038;-69
2020/12/14 09:18:55;;;;;;;7.07;3.10;;;;;;;6.67;87.04;100459.44;5048802;28;20049;-71
2020/12/14 09:21:21;;;;;;;7.55;3.70;;;;;;;6.71;86.99;100455.97;5050661;28;20106;-72
2020/12/14 09:24:12;;;;;;;7.80;2.58;;;;;;;6.79;86.72;100451.59;5032134;28;20046;-72
2020/12/14 09:26:39;;;;;;;7.85;2.80;;;;;;;6.74;86.81;100453.34;5048671;28;20060;-71
2020/12/14 09:29:05;;;;;;;7.93;2.95;;;;;;;6.79;86.78;100454.19;5049066;28;20055;-71
2020/12/14 09:31:31;;;;;;;9.88;2.85;;;;;;;6.83;87.03;100461.06;5050278;28;20606;-71
2020/12/14 09:33:58;;;;;;;8.10;2.83;;;;;;;6.84;86.74;100472.25;5049872;28;20076;-69
2020/12/14 09:36:24;;;;;;;10.82;2.90;;;;;;;6.90;86.53;100456.66;5046340;28;20049;-70
2020/12/14 09:38:50;;;;;;;6.38;2.22;;;;;;;6.98;86.43;100459.19;5046230;28;20044;-72
2020/12/14 09:41:16;;;;;;;7.05;2.58;;;;;;;6.98;86.43;100469.53;5057514;28;20045;-72
2020/12/14 09:43:42;;;;;;;8.95;4.03;;;;;;;7.01;86.66;100474.69;5045398;28;20045;-72
2020/12/14 09:46:09;;;;;;;9.43;4.18;;;;;;;7.01;86.68;100464.34;5047450;28;20088;-68
2020/12/14 09:48:35;;;;;;;7.95;3.17;;;;;;;7.04;86.31;100473.78;5046413;28;20433;-72
2020/12/14 09:51:02;;;;;;;8.15;2.78;;;;;;;7.08;86.05;100465.16;5047089;28;20052;-72
2020/12/14 09:53:28;;;;;;;8.38;3.53;;;;;;;7.04;86.41;100463.44;5053129;28;20090;-71
2020/12/14 09:55:54;;;;;;;7.90;3.10;;;;;;;7.00;86.49;100476.41;5047213;28;20287;-70
2020/12/14 09:58:20;;;;;;;9.52;3.50;;;;;;;6.97;86.95;100466.09;5048453;28;20136;-71
2020/12/14 10:00:46;;;;;;;10.57;4.95;;;;;;;6.98;87.15;100464.34;5069431;28;20056;-71
2020/12/14 10:03:12;;;;;;;9.68;4.05;;;;;;;7.06;86.66;100454.78;5055213;28;20052;-67
2020/12/14 10:05:44;;;;;;;8.70;3.55;;;;;;;7.15;86.71;100456.44;5049397;28;20073;-69
2020/12/14 10:08:11;;;;;;;10.07;3.72;;;;;;;7.05;87.13;100476.34;5050047;28;20056;-71
2020/12/14 10:10:36;;;;;;;10.27;4.10;;;;;;;6.98;87.81;100460.06;5048795;28;20053;-72
2020/12/14 10:13:02;;;;;;;7.25;3.20;;;;;;;7.02;87.54;100466.06;5041893;28;20502;-71
2020/12/14 10:15:28;;;;;;;10.70;4.00;;;;;;;7.03;87.71;100462.59;5030148;28;20158;-71
2020/12/14 10:17:54;;;;;;;9.18;4.18;;;;;;;7.13;86.88;100472.00;5029609;28;20415;-71
2020/12/14 10:20:20;;;;;;;7.03;3.60;;;;;;;7.10;87.29;100471.13;5049925;28;20048;-70
2020/12/14 10:22:46;;;;;;;10.75;4.55;;;;;;;7.07;87.68;100463.44;5052131;28;20054;-73
2020/12/14 10:25:13;;;;;;;14.07;4.32;;;;;;;7.20;87.14;100469.34;5030253;28;20106;-71
2020/12/14 10:27:39;;;;;;;10.93;3.95;;;;;;;7.23;87.06;100466.72;5032625;28;20048;-71
2020/12/14 10:30:05;;;;;;;7.82;3.83;;;;;;;7.27;87.19;100476.16;5049928;28;20065;-71
2020/12/14 10:32:31;;;;;;;9.52;4.70;;;;;;;7.26;86.63;100479.63;5049198;28;20051;-71
2020/12/14 10:34:57;;;;;;;7.22;3.50;;;;;;;7.25;86.62;100480.50;5050058;28;20057;-70
2020/12/14 10:37:23;;;;;;;9.65;4.18;;;;;;;7.19;86.99;100477.97;5036365;28;20483;-70
2020/12/14 10:39:49;;;;;;;8.88;4.30;;;;;;;7.24;87.21;100464.13;5029990;28;20046;-70
2020/12/14 10:42:16;;;;;;;7.65;3.53;;;;;;;7.43;87.08;100466.50;5038538;28;20051;-70
2020/12/14 10:44:41;;;;;;;8.60;4.47;;;;;;;7.54;86.29;100456.03;5050533;28;20049;-71
2020/12/14 10:47:08;;;;;;;13.73;4.25;;;;;;;7.55;86.56;100456.03;5053675;28;20109;-70
2020/12/14 10:49:34;;;;;;;9.55;3.63;;;;;;;7.58;86.19;100456.00;5049288;28;20138;-71
2020/12/14 10:52:01;;;;;;;12.25;4.63;;;;;;;7.68;86.60;100458.50;5047161;28;20056;-70
2020/12/14 10:54:27;;;;;;;11.98;4.55;;;;;;;7.76;86.23;100460.09;5053091;28;20048;-70
2020/12/14 10:56:53;;;;;;;7.88;4.32;;;;;;;7.82;85.99;100443.63;5038164;28;20454;-70
2020/12/14 10:59:20;;;;;;;12.07;3.80;;;;;;;7.87;85.66;100456.50;5050416;28;20053;-69
2020/12/14 11:01:49;;;;;;;13.52;4.10;;;;;;;7.94;85.01;100442.59;5050102;28;20049;-70
2020/12/14 11:04:15;;;;;;;10.13;3.78;;;;;;;7.89;85.70;100440.06;5053758;28;20041;-71
2020/12/14 11:06:41;;;;;;;11.45;5.00;;;;;;;7.97;85.72;100427.03;5052932;28;20052;-71
2020/12/14 11:09:07;;;;;;;9.07;4.00;;;;;;;8.04;84.56;100433.00;5046927;28;20056;-69
2020/12/14 11:11:35;;;;;;;8.95;3.20;;;;;;;7.94;85.36;100429.66;5051714;28;20494;-70
2020/12/14 11:14:01;;;;;;;10.35;4.35;;;;;;;7.94;85.48;100421.88;5044207;28;20056;-71
2020/12/14 11:16:29;;;;;;;9.88;5.35;;;;;;;8.04;85.91;100435.59;5047264;28;20060;-71
2020/12/14 11:18:56;;;;;;;12.55;4.43;;;;;;;8.09;85.89;100432.06;5060633;28;20040;-72
2020/12/14 11:21:22;;;;;;;12.50;4.45;;;;;;;8.20;85.98;100439.66;5059783;28;20460;-71
2020/12/14 11:23:48;;;;;;;11.45;4.03;;;;;;;8.20;85.20;100441.41;5046430;28;20094;-71
2020/12/14 11:26:14;;;;;;;8.73;3.60;;;;;;;8.25;84.88;100432.69;5049476;28;20055;-70
2020/12/14 11:28:40;;;;;;;8.07;4.32;;;;;;;8.31;84.82;100430.88;5056954;28;20468;-69
2020/12/14 11:31:07;;;;;;;9.40;4.32;;;;;;;8.28;84.80;100428.34;5065543;28;20053;-72
2020/12/14 11:33:34;;;;;;;8.57;3.50;;;;;;;8.41;84.03;100416.91;5052911;28;20426;-71
2020/12/14 11:36:00;;;;;;;13.27;4.93;;;;;;;8.40;84.28;100412.59;5046630;28;20052;-72